createdAt,value
2018-03-16T02:24:45.202Z,22.97
2018-03-16T02:27:15.097Z,20.80
2018-03-16T02:29:43.563Z,22.73
2018-03-16T02:32:13.345Z,24.13
2018-03-16T02:34:42.332Z,22.07
2018-03-16T02:37:12.645Z,27.20
2018-03-16T02:39:42.030Z,22.43
2018-03-16T02:42:10.452Z,21.57
2018-03-16T02:44:39.801Z,23.23
2018-03-16T02:47:08.237Z,23.23
2018-03-16T02:49:36.612Z,25.70
2018-03-16T02:52:06.097Z,23.93
2018-03-16T02:54:36.193Z,23.17
2018-03-16T02:57:04.608Z,24.00
2018-03-16T02:59:33.117Z,26.47
2018-03-16T03:02:03.621Z,24.40
2018-03-16T03:04:32.800Z,23.27
2018-03-16T03:07:02.453Z,25.53
2018-03-16T03:12:30.087Z,29.90
2018-03-16T03:14:58.985Z,26.47
2018-03-16T03:17:29.964Z,27.47
2018-03-16T03:19:59.165Z,29.53
2018-03-16T03:22:27.543Z,33.07
2018-03-16T03:24:55.927Z,33.63
2018-03-16T03:27:24.710Z,33.37
2018-03-16T03:29:53.115Z,36.53
2018-03-16T03:32:23.195Z,35.30
2018-03-16T03:34:52.047Z,38.17
2018-03-16T03:37:21.072Z,32.43
2018-03-16T03:39:50.963Z,31.47
2018-03-16T03:42:19.638Z,31.67
2018-03-16T03:44:48.031Z,30.53
2018-03-16T03:47:17.133Z,28.30
2018-03-16T03:49:46.030Z,26.33
2018-03-16T03:52:14.678Z,28.13
2018-03-16T03:54:43.778Z,26.87
2018-03-16T03:57:12.126Z,27.63
2018-03-16T03:59:42.177Z,27.17
2018-03-16T04:02:10.993Z,28.43
2018-03-16T04:04:40.233Z,33.07
2018-03-16T04:07:08.654Z,27.77
2018-03-16T04:09:37.431Z,29.30
2018-03-16T04:12:06.669Z,27.73
2018-03-16T04:14:35.071Z,28.10
2018-03-16T04:17:04.171Z,28.00
2018-03-16T04:19:32.513Z,28.50
2018-03-16T04:22:01.154Z,34.13
2018-03-16T04:24:29.746Z,32.33
2018-03-16T04:27:00.464Z,33.23
2018-03-16T04:29:28.823Z,28.87
2018-03-16T04:31:57.953Z,30.00
2018-03-16T04:34:27.680Z,27.47
2018-03-16T04:36:56.051Z,29.53
2018-03-16T04:39:26.319Z,27.43
2018-03-16T04:41:55.985Z,26.37
2018-03-16T04:44:24.424Z,25.43
2018-03-16T04:46:53.579Z,26.53
2018-03-16T04:49:21.957Z,28.47
2018-03-16T04:51:51.172Z,25.03
2018-03-16T04:54:20.651Z,27.17
2018-03-16T04:56:50.793Z,28.70
2018-03-16T04:59:20.262Z,27.23
2018-03-16T05:01:49.905Z,28.40
2018-03-16T05:04:18.625Z,29.67
2018-03-16T05:06:46.981Z,28.03
2018-03-16T05:09:16.306Z,27.77
2018-03-16T05:11:44.972Z,28.20
2018-03-16T05:14:13.401Z,30.00
2018-03-16T05:16:42.322Z,31.13
2018-03-16T05:19:12.328Z,31.37
2018-03-16T05:21:40.749Z,30.93
2018-03-16T05:24:09.994Z,28.77
2018-03-16T05:26:40.041Z,29.10
2018-03-16T05:29:09.317Z,29.13
2018-03-16T05:31:37.658Z,30.57
2018-03-16T05:34:08.736Z,32.93
2018-03-16T05:36:37.685Z,34.50
2018-03-16T05:39:08.099Z,27.90
2018-03-16T05:41:37.269Z,28.60
2018-03-16T05:44:05.664Z,30.47
2018-03-16T05:46:34.023Z,30.17
2018-03-16T05:49:02.464Z,31.30
2018-03-16T05:51:31.849Z,31.33
2018-03-16T05:54:01.020Z,27.63
2018-03-16T05:56:29.812Z,30.20
2018-03-16T05:58:59.089Z,27.33
2018-03-16T06:01:27.746Z,27.87
2018-03-16T06:03:57.232Z,28.13
2018-03-16T06:06:28.376Z,25.77
2018-03-16T06:08:58.484Z,27.13
2018-03-16T06:11:26.824Z,28.10
2018-03-16T06:13:55.491Z,27.57
2018-03-16T06:16:25.987Z,30.27
2018-03-16T06:18:56.273Z,31.23
2018-03-16T06:21:24.784Z,27.53
2018-03-16T06:23:55.382Z,30.07
2018-03-16T06:26:25.367Z,32.87
2018-03-16T06:28:55.081Z,30.53
2018-03-16T06:31:23.491Z,26.80
2018-03-16T06:33:53.144Z,30.63
2018-03-16T06:36:21.597Z,28.27
2018-03-16T06:38:51.967Z,25.93
2018-03-16T06:41:23.479Z,27.97
2018-03-16T06:43:51.857Z,32.67
2018-03-16T06:46:28.267Z,29.73
2018-03-16T06:49:01.580Z,26.87
2018-03-16T06:51:31.656Z,27.93
2018-03-16T06:54:00.754Z,27.50
2018-03-16T06:56:30.480Z,31.93
2018-03-16T06:59:01.884Z,28.43
2018-03-16T07:01:32.833Z,31.97
2018-03-16T07:04:03.174Z,37.47
2018-03-16T07:06:33.055Z,39.20
2018-03-16T07:09:03.373Z,33.30
2018-03-16T07:11:32.689Z,25.20
2018-03-16T07:14:01.462Z,26.63
2018-03-16T07:16:31.376Z,28.03
2018-03-16T07:19:00.468Z,30.00
2018-03-16T07:21:28.816Z,26.70
2018-03-16T07:23:58.191Z,28.83
2018-03-16T07:26:27.094Z,28.13
2018-03-16T07:28:55.458Z,24.73
2018-03-16T07:31:25.469Z,25.10
2018-03-16T07:33:54.749Z,25.37
2018-03-16T07:36:23.080Z,24.70
2018-03-16T07:38:52.036Z,25.77
2018-03-16T07:41:21.570Z,27.67
2018-03-16T07:43:58.076Z,26.23
2018-03-16T07:46:27.212Z,24.37
2018-03-16T07:48:56.252Z,26.07
2018-03-16T07:51:26.211Z,24.53
2018-03-16T07:53:55.518Z,22.20
2018-03-16T07:56:23.933Z,23.90
2018-03-16T07:58:52.295Z,22.80
2018-03-16T08:01:20.756Z,25.77
2018-03-16T08:03:52.344Z,23.13
2018-03-16T08:06:21.719Z,24.30
2018-03-16T08:08:52.144Z,24.57
2018-03-16T08:11:20.954Z,24.30
2018-03-16T08:13:50.983Z,24.90
2018-03-16T08:16:19.416Z,24.70
2018-03-16T08:18:48.236Z,21.77
2018-03-16T08:21:18.074Z,23.93
2018-03-16T08:23:46.660Z,22.10
2018-03-16T08:26:15.954Z,24.23
2018-03-16T08:28:44.324Z,22.80
2018-03-16T08:31:12.665Z,23.27
2018-03-16T08:33:41.892Z,23.40
2018-03-16T08:36:11.224Z,27.23
2018-03-16T08:38:41.366Z,23.90
2018-03-16T08:41:11.539Z,25.50
2018-03-16T08:43:40.772Z,22.30
2018-03-16T08:46:09.551Z,22.70
2018-03-16T08:48:38.687Z,21.20
2018-03-16T08:51:08.163Z,23.80
2018-03-16T08:53:40.560Z,22.67
2018-03-16T08:56:08.912Z,21.90
2018-03-16T08:58:39.227Z,20.60
2018-03-16T09:01:08.536Z,21.63
2018-03-16T09:03:37.510Z,25.87
2018-03-16T09:06:06.466Z,26.70
2018-03-16T09:08:34.848Z,26.43
2018-03-16T09:11:04.556Z,25.33
2018-03-16T09:13:33.980Z,24.93
2018-03-16T09:16:02.307Z,22.10
2018-03-16T09:18:31.973Z,20.87
2018-03-16T09:21:03.341Z,20.27
2018-03-16T09:23:31.697Z,18.50
2018-03-16T09:26:00.807Z,20.57
2018-03-16T09:28:29.851Z,19.63
2018-03-16T09:30:59.600Z,17.30
2018-03-16T09:33:28.734Z,20.30
2018-03-16T09:35:57.129Z,18.57
2018-03-16T09:38:27.371Z,19.10
2018-03-16T09:40:56.759Z,19.07
2018-03-16T09:43:26.910Z,19.33
2018-03-16T09:45:56.159Z,16.40
2018-03-16T09:48:25.452Z,16.20
2018-03-16T09:50:53.826Z,16.87
2018-03-16T09:53:31.363Z,16.07
2018-03-16T09:56:00.333Z,15.47
2018-03-16T09:58:29.127Z,15.83
2018-03-16T10:00:59.058Z,16.60
2018-03-16T10:03:29.582Z,15.83
2018-03-16T10:05:57.915Z,18.33
2018-03-16T10:08:27.030Z,15.57
2018-03-16T10:10:55.846Z,21.10
2018-03-16T10:13:25.132Z,17.30
2018-03-16T10:15:58.248Z,14.67
2018-03-16T10:18:27.102Z,14.00
2018-03-16T10:20:55.679Z,14.37
2018-03-16T10:23:25.731Z,13.40
2018-03-16T10:25:55.303Z,11.50
2018-03-16T10:28:24.717Z,10.73
2018-03-16T10:30:54.795Z,11.60
2018-03-16T10:33:24.112Z,12.17
2018-03-16T10:35:56.507Z,12.93
2018-03-16T10:38:26.396Z,11.83
2018-03-16T10:40:55.523Z,10.57
2018-03-16T10:43:24.297Z,16.83
2018-03-16T10:45:53.907Z,10.00
2018-03-16T10:48:23.308Z,10.30
2018-03-16T10:50:51.725Z,10.47
2018-03-16T10:53:21.814Z,13.47
2018-03-16T10:55:52.158Z,11.73
2018-03-16T10:58:20.800Z,11.43
2018-03-16T11:00:55.713Z,12.47
2018-03-16T11:03:24.599Z,13.83
2018-03-16T11:05:54.623Z,15.27
2018-03-16T11:08:28.883Z,12.77
2018-03-16T11:10:58.552Z,14.37
2018-03-16T11:13:27.175Z,13.37
2018-03-16T11:15:56.360Z,14.90
2018-03-16T11:18:25.808Z,11.73
2018-03-16T11:20:54.559Z,14.67
2018-03-16T11:23:23.886Z,13.97
2018-03-16T11:25:52.951Z,15.50
2018-03-16T11:28:22.577Z,14.20
2018-03-16T11:30:52.937Z,14.83
2018-03-16T11:33:22.972Z,16.23
2018-03-16T11:35:51.928Z,16.07
2018-03-16T11:38:21.565Z,16.73
2018-03-16T11:40:51.775Z,14.17
2018-03-16T11:43:20.648Z,15.60
2018-03-16T11:45:49.016Z,16.33
2018-03-16T11:48:19.028Z,15.90
2018-03-16T11:50:48.172Z,14.70
2018-03-16T11:53:17.954Z,18.67
2018-03-16T11:55:48.821Z,17.00
2018-03-16T11:58:18.039Z,18.87
2018-03-16T12:00:47.549Z,16.17
2018-03-16T12:03:16.776Z,19.20
2018-03-16T12:05:45.584Z,21.13
2018-03-16T12:08:14.886Z,18.37
2018-03-16T12:10:45.974Z,19.00
2018-03-16T12:13:16.140Z,18.47
2018-03-16T12:15:45.631Z,17.60
2018-03-16T12:18:14.007Z,15.33
2018-03-16T12:20:44.689Z,17.47
2018-03-16T12:23:14.594Z,16.87
2018-03-16T12:25:44.249Z,16.03
2018-03-16T12:28:13.099Z,17.97
2018-03-16T12:30:42.537Z,15.20
2018-03-16T12:33:11.641Z,16.70
2018-03-16T12:35:40.945Z,15.80
2018-03-16T12:38:10.096Z,18.57
2018-03-16T12:40:43.240Z,15.60
2018-03-16T12:43:12.577Z,16.43
2018-03-16T12:45:42.314Z,15.80
2018-03-16T12:48:12.247Z,17.80
2018-03-16T12:50:40.819Z,15.80
2018-03-16T12:53:10.083Z,14.37
2018-03-16T12:55:40.855Z,11.97
2018-03-16T12:58:09.663Z,16.07
2018-03-16T13:00:39.394Z,15.10
2018-03-16T13:03:08.647Z,13.23
2018-03-16T13:05:37.058Z,21.00
2018-03-16T13:08:05.411Z,15.00
2018-03-16T13:10:34.379Z,17.03
2018-03-16T13:13:05.607Z,17.90
2018-03-16T13:15:36.525Z,18.47
2018-03-16T13:18:05.351Z,16.47
2018-03-16T13:20:33.727Z,17.90
2018-03-16T13:23:02.124Z,19.27
2018-03-16T13:25:30.495Z,19.87
2018-03-16T13:27:58.979Z,19.67
2018-03-16T13:30:28.130Z,17.73
2018-03-16T13:32:56.752Z,15.57
2018-03-16T13:35:26.540Z,16.30
2018-03-16T13:37:55.386Z,16.90
2018-03-16T13:40:23.839Z,13.10
2018-03-16T13:42:52.207Z,12.67
2018-03-16T13:45:21.803Z,14.67
2018-03-16T13:47:50.618Z,16.90
2018-03-16T13:50:19.196Z,14.30
2018-03-16T13:52:48.350Z,13.87
2018-03-16T13:55:18.153Z,11.20
2018-03-16T13:57:47.970Z,14.27
2018-03-16T14:00:17.107Z,11.93
2018-03-16T14:02:45.713Z,12.53
2018-03-16T14:05:15.537Z,14.57
2018-03-16T14:07:43.985Z,16.20
2018-03-16T14:10:13.814Z,15.30
2018-03-16T14:12:43.134Z,15.83
2018-03-16T14:15:12.433Z,13.87
2018-03-16T14:17:40.775Z,14.43
2018-03-16T14:20:09.604Z,16.23
2018-03-16T14:22:38.041Z,15.87
2018-03-16T14:25:07.479Z,15.90
2018-03-16T14:27:35.832Z,18.77
2018-03-16T14:30:04.699Z,16.40
2018-03-16T14:32:34.047Z,18.40
2018-03-16T14:35:03.149Z,27.77
2018-03-16T14:37:31.514Z,19.17
2018-03-16T14:40:00.834Z,16.80
2018-03-16T14:42:29.965Z,20.07
2018-03-16T14:44:59.304Z,18.07
2018-03-16T14:47:28.112Z,17.47
2018-03-16T14:49:57.438Z,20.60
2018-03-16T14:52:25.893Z,17.00
2018-03-16T14:54:58.018Z,16.90
2018-03-16T14:57:26.446Z,21.00
2018-03-16T14:59:54.855Z,16.67
2018-03-16T15:02:30.444Z,14.80
2018-03-16T15:04:59.632Z,15.70
2018-03-16T15:07:28.306Z,18.40
2018-03-16T15:09:57.297Z,16.97
2018-03-16T15:12:26.984Z,15.47
2018-03-16T15:14:57.132Z,21.90
2018-03-16T15:17:25.771Z,21.60
2018-03-16T15:19:54.379Z,17.30
2018-03-16T15:22:24.267Z,20.47
2018-03-16T15:24:53.743Z,20.17
2018-03-16T15:27:23.011Z,18.93
2018-03-16T15:29:52.240Z,21.57
2018-03-16T15:32:20.568Z,21.93
2018-03-16T15:34:49.521Z,19.70
2018-03-16T15:37:19.433Z,21.73
2018-03-16T15:39:49.334Z,18.80
2018-03-16T15:42:17.681Z,22.90
2018-03-16T15:44:46.100Z,19.00
2018-03-16T15:47:17.627Z,17.80
2018-03-16T15:49:47.480Z,18.90
2018-03-16T15:52:16.755Z,16.07
2018-03-16T15:54:45.231Z,15.27
2018-03-16T15:57:13.566Z,15.20
2018-03-16T15:59:42.082Z,15.33
2018-03-16T16:02:12.122Z,15.23
2018-03-16T16:04:40.492Z,14.93
2018-03-16T16:07:08.883Z,17.57
2018-03-16T16:09:37.263Z,18.03
2018-03-16T16:12:06.132Z,13.30
2018-03-16T16:14:34.513Z,11.50
2018-03-16T16:17:03.947Z,13.57
2018-03-16T16:19:32.371Z,11.03
2018-03-16T16:22:01.717Z,11.43
2018-03-16T16:24:31.979Z,11.60
2018-03-16T16:27:00.990Z,11.27
2018-03-16T16:29:34.703Z,14.13
2018-03-16T16:32:03.359Z,12.87
2018-03-16T16:34:34.873Z,11.90
2018-03-16T16:37:03.269Z,11.13
2018-03-16T16:39:33.513Z,12.43
2018-03-16T16:42:02.062Z,15.17
2018-03-16T16:44:30.446Z,10.10
2018-03-16T16:46:58.811Z,10.33
2018-03-16T16:49:27.377Z,8.83
2018-03-16T16:51:56.640Z,8.83
2018-03-16T16:54:25.399Z,9.40
2018-03-16T16:56:53.751Z,9.13
2018-03-16T16:59:22.811Z,9.47
2018-03-16T17:01:51.798Z,9.37
2018-03-16T17:04:23.083Z,9.37
2018-03-16T17:06:53.061Z,9.97
2018-03-16T17:09:22.013Z,8.40
2018-03-16T17:11:50.659Z,8.80
2018-03-16T17:14:22.472Z,9.43
2018-03-16T17:16:50.911Z,10.87
2018-03-16T17:19:19.986Z,10.43
2018-03-16T17:21:49.326Z,10.47
2018-03-16T17:24:18.433Z,11.43
2018-03-16T17:26:48.012Z,12.97
2018-03-16T17:29:18.146Z,11.33
2018-03-16T17:31:48.311Z,10.10
2018-03-16T17:34:16.693Z,10.63
2018-03-16T17:36:46.376Z,8.00
2018-03-16T17:39:15.011Z,7.40
2018-03-16T17:41:43.376Z,8.70
2018-03-16T17:44:11.700Z,7.90
2018-03-16T17:46:40.460Z,8.00
2018-03-16T17:49:10.316Z,8.40
2018-03-16T17:51:39.546Z,8.87
2018-03-16T17:54:09.392Z,7.80
2018-03-16T17:56:38.388Z,8.80
2018-03-16T17:59:07.519Z,11.17
2018-03-16T18:01:35.937Z,19.13
2018-03-16T18:04:06.099Z,10.97
2018-03-16T18:06:35.619Z,10.10
2018-03-16T18:09:04.175Z,9.07
2018-03-16T18:11:35.266Z,10.00
2018-03-16T18:14:03.828Z,9.40
2018-03-16T18:16:33.014Z,10.43
2018-03-16T18:19:01.962Z,10.83
2018-03-16T18:21:30.500Z,10.70
2018-03-16T18:23:59.939Z,10.83
2018-03-16T18:26:30.680Z,9.07
2018-03-16T18:29:00.692Z,11.20
2018-03-16T18:31:29.981Z,11.03
2018-03-16T18:33:58.705Z,11.00
2018-03-16T18:36:28.386Z,11.73
2018-03-16T18:38:58.212Z,10.37
2018-03-16T18:41:27.806Z,12.60
2018-03-16T18:43:57.003Z,9.53
2018-03-16T18:46:26.748Z,12.33
2018-03-16T18:48:55.891Z,10.10
2018-03-16T18:51:25.357Z,12.47
2018-03-16T18:53:54.587Z,12.50
2018-03-16T18:56:23.835Z,11.07
2018-03-16T18:58:54.835Z,11.03
2018-03-16T19:01:23.720Z,10.57
2018-03-16T19:03:52.733Z,12.30
2018-03-16T19:06:21.130Z,15.70
2018-03-16T19:08:51.698Z,13.10
2018-03-16T19:11:21.491Z,12.63
2018-03-16T19:13:49.870Z,14.33
2018-03-16T19:16:19.430Z,15.33
2018-03-16T19:18:48.728Z,16.07
2018-03-16T19:21:18.390Z,17.43
2018-03-16T19:23:46.737Z,17.33
2018-03-16T19:26:15.850Z,16.90
2018-03-16T19:28:44.290Z,17.33
2018-03-16T19:31:13.818Z,18.70
2018-03-16T19:33:43.759Z,17.13
2018-03-16T19:36:13.311Z,19.90
2018-03-16T19:38:42.464Z,18.77
2018-03-16T19:41:12.672Z,21.73
2018-03-16T19:43:41.102Z,19.07
2018-03-16T19:46:09.458Z,20.10
2018-03-16T19:48:37.896Z,18.37
2018-03-16T19:51:07.195Z,16.37
2018-03-16T19:53:35.571Z,18.30
2018-03-16T19:56:05.333Z,20.97
2018-03-16T19:58:34.580Z,20.07
2018-03-16T20:01:03.669Z,21.07
2018-03-16T20:03:31.996Z,18.37
2018-03-16T20:06:00.502Z,15.90
2018-03-16T20:08:30.489Z,20.33
2018-03-16T20:10:58.857Z,16.53
2018-03-16T20:13:27.968Z,17.10
2018-03-16T20:15:56.436Z,18.27
2018-03-16T20:18:24.797Z,18.30
2018-03-16T20:20:54.720Z,20.50
2018-03-16T20:23:23.113Z,20.17
2018-03-16T20:25:51.777Z,20.20
2018-03-16T20:28:21.810Z,18.43
2018-03-16T20:30:50.600Z,21.10
2018-03-16T20:33:19.843Z,18.43
2018-03-16T20:35:48.210Z,19.60
2018-03-16T20:38:16.550Z,20.23
2018-03-16T20:40:45.269Z,18.70
2018-03-16T20:43:13.678Z,19.47
2018-03-16T20:45:45.267Z,20.00
2018-03-16T20:48:14.375Z,19.97
2018-03-16T20:50:42.730Z,19.37
2018-03-16T20:53:11.896Z,20.77
2018-03-16T20:55:40.314Z,21.27
2018-03-16T20:58:10.082Z,19.87
2018-03-16T21:00:38.470Z,22.57
2018-03-16T21:03:07.709Z,18.10
2018-03-16T21:05:36.036Z,20.10
2018-03-16T21:08:04.857Z,19.57
2018-03-16T21:10:34.259Z,19.60
2018-03-16T21:13:02.721Z,20.73
2018-03-16T21:15:31.636Z,19.43
2018-03-16T21:18:00.010Z,22.07
2018-03-16T21:20:30.154Z,19.10
2018-03-16T21:22:59.279Z,18.77
2018-03-16T21:25:27.683Z,20.73
2018-03-16T21:27:57.820Z,20.27
2018-03-16T21:30:26.440Z,21.47
2018-03-16T21:32:55.353Z,18.70
2018-03-16T21:35:23.776Z,21.90
2018-03-16T21:37:52.156Z,23.70
2018-03-16T21:40:22.207Z,22.07
2018-03-16T21:42:52.382Z,23.20
2018-03-16T21:45:20.766Z,21.83
2018-03-16T21:47:50.599Z,18.90
2018-03-16T21:50:19.879Z,21.47
2018-03-16T21:52:48.245Z,23.07
2018-03-16T21:55:16.630Z,22.33
2018-03-16T21:57:44.985Z,22.60
2018-03-16T22:00:14.675Z,21.60
2018-03-16T22:02:47.730Z,22.57
2018-03-16T22:05:17.092Z,18.30
2018-03-16T22:07:46.127Z,20.63
2018-03-16T22:10:14.471Z,22.90
2018-03-16T22:12:42.903Z,24.20
2018-03-16T22:15:11.278Z,20.27
2018-03-16T22:17:39.641Z,22.30
2018-03-16T22:20:08.113Z,23.50
2018-03-16T22:22:36.590Z,23.73
2018-03-16T22:25:06.163Z,21.97
2018-03-16T22:27:34.533Z,26.23
2018-03-16T22:30:04.770Z,24.60
2018-03-16T22:32:33.848Z,23.23
2018-03-16T22:35:03.085Z,24.13
2018-03-16T22:37:32.379Z,23.57
2018-03-16T22:40:00.866Z,24.00
2018-03-16T22:42:29.301Z,22.43
2018-03-16T22:44:57.839Z,21.57
2018-03-16T22:47:26.877Z,24.57
2018-03-16T22:49:55.268Z,21.50
2018-03-16T22:52:25.448Z,22.50
2018-03-16T22:54:55.194Z,21.30
2018-03-16T22:57:25.284Z,23.53
2018-03-16T22:59:53.737Z,26.63
2018-03-16T23:02:22.531Z,23.67
2018-03-16T23:04:52.139Z,25.33
2018-03-16T23:07:20.593Z,25.60
2018-03-16T23:09:48.919Z,25.37
2018-03-16T23:12:18.489Z,25.37
2018-03-16T23:14:47.668Z,23.43
2018-03-16T23:17:16.913Z,24.60
2018-03-16T23:22:19.702Z,26.57
2018-03-16T23:24:48.366Z,25.23
2018-03-16T23:27:16.798Z,22.00
2018-03-16T23:29:45.191Z,24.27
2018-03-16T23:32:13.562Z,22.00
2018-03-16T23:34:42.767Z,24.17
2018-03-16T23:37:11.153Z,22.23
2018-03-16T23:39:39.500Z,23.80
2018-03-16T23:42:09.761Z,24.50
2018-03-16T23:44:38.580Z,24.60
2018-03-16T23:47:06.939Z,23.30
2018-03-16T23:49:35.348Z,23.47
2018-03-16T23:52:04.581Z,25.83
2018-03-16T23:54:34.623Z,26.13
2018-03-16T23:57:04.055Z,24.30
2018-03-16T23:59:33.527Z,24.17
